sensor_id;sensor_type;location;lat;lon;timestamp;temperature;humidity
66670;DHT22;53568;52.164;4.472;2023-03-15T00:00:39;5.39;74.53
66670;DHT22;53568;52.164;4.472;2023-03-15T00:03:07;5.25;74.29
66670;DHT22;53568;52.164;4.472;2023-03-15T00:05:33;5.26;74.84
66670;DHT22;53568;52.164;4.472;2023-03-15T00:07:59;5.38;74.42
66670;DHT22;53568;52.164;4.472;2023-03-15T00:10:24;5.38;74.52
66670;DHT22;53568;52.164;4.472;2023-03-15T00:12:50;5.36;74.93
66670;DHT22;53568;52.164;4.472;2023-03-15T00:15:15;5.32;75.87
66670;DHT22;53568;52.164;4.472;2023-03-15T00:17:41;5.16;76.67
66670;DHT22;53568;52.164;4.472;2023-03-15T00:20:07;5.15;77.23
66670;DHT22;53568;52.164;4.472;2023-03-15T00:22:33;5.08;77.21
66670;DHT22;53568;52.164;4.472;2023-03-15T00:24:58;5.09;77.02
66670;DHT22;53568;52.164;4.472;2023-03-15T00:27:24;5.02;76.72
66670;DHT22;53568;52.164;4.472;2023-03-15T00:29:50;4.78;78.22
66670;DHT22;53568;52.164;4.472;2023-03-15T00:32:15;4.88;78.17
66670;DHT22;53568;52.164;4.472;2023-03-15T00:34:40;4.95;77.87
66670;DHT22;53568;52.164;4.472;2023-03-15T00:37:06;5.02;77.46
66670;DHT22;53568;52.164;4.472;2023-03-15T00:39:32;4.99;77.61
66670;DHT22;53568;52.164;4.472;2023-03-15T00:42:02;5.05;77.76
66670;DHT22;53568;52.164;4.472;2023-03-15T00:44:28;5.09;77.61
66670;DHT22;53568;52.164;4.472;2023-03-15T00:46:55;5.16;77.49
66670;DHT22;53568;52.164;4.472;2023-03-15T00:49:21;5.20;77.35
66670;DHT22;53568;52.164;4.472;2023-03-15T00:51:46;5.26;77.22
66670;DHT22;53568;52.164;4.472;2023-03-15T00:54:12;5.23;77.20
66670;DHT22;53568;52.164;4.472;2023-03-15T00:56:38;5.16;77.46
66670;DHT22;53568;52.164;4.472;2023-03-15T00:59:04;5.19;77.58
66670;DHT22;53568;52.164;4.472;2023-03-15T01:01:30;5.22;77.52
66670;DHT22;53568;52.164;4.472;2023-03-15T01:03:55;5.23;77.67
66670;DHT22;53568;52.164;4.472;2023-03-15T01:06:24;5.30;77.47
66670;DHT22;53568;52.164;4.472;2023-03-15T01:08:50;5.20;77.63
66670;DHT22;53568;52.164;4.472;2023-03-15T01:11:21;5.25;77.23
66670;DHT22;53568;52.164;4.472;2023-03-15T01:13:53;5.33;77.14
66670;DHT22;53568;52.164;4.472;2023-03-15T01:16:19;5.20;77.28
66670;DHT22;53568;52.164;4.472;2023-03-15T01:18:45;5.28;77.05
66670;DHT22;53568;52.164;4.472;2023-03-15T01:21:13;5.26;76.99
66670;DHT22;53568;52.164;4.472;2023-03-15T01:23:39;5.32;77.17
66670;DHT22;53568;52.164;4.472;2023-03-15T01:26:09;5.39;77.09
66670;DHT22;53568;52.164;4.472;2023-03-15T01:28:35;5.36;77.30
66670;DHT22;53568;52.164;4.472;2023-03-15T01:31:01;5.36;77.41
66670;DHT22;53568;52.164;4.472;2023-03-15T01:33:27;5.46;77.12
66670;DHT22;53568;52.164;4.472;2023-03-15T01:36:02;5.40;77.20
66670;DHT22;53568;52.164;4.472;2023-03-15T01:38:29;5.43;77.10
66670;DHT22;53568;52.164;4.472;2023-03-15T01:40:55;5.43;76.77
66670;DHT22;53568;52.164;4.472;2023-03-15T01:43:27;5.39;76.74
66670;DHT22;53568;52.164;4.472;2023-03-15T01:48:35;5.42;75.87
66670;DHT22;53568;52.164;4.472;2023-03-15T01:51:17;5.39;75.87
66670;DHT22;53568;52.164;4.472;2023-03-15T01:54:01;5.42;75.76
66670;DHT22;53568;52.164;4.472;2023-03-15T01:56:31;5.46;75.48
66670;DHT22;53568;52.164;4.472;2023-03-15T01:59:00;5.46;75.46
66670;DHT22;53568;52.164;4.472;2023-03-15T02:01:28;5.42;75.57
66670;DHT22;53568;52.164;4.472;2023-03-15T02:04:02;5.42;75.38
66670;DHT22;53568;52.164;4.472;2023-03-15T02:06:30;5.43;75.59
66670;DHT22;53568;52.164;4.472;2023-03-15T02:09:04;5.46;75.28
66670;DHT22;53568;52.164;4.472;2023-03-15T02:11:30;5.32;75.79
66670;DHT22;53568;52.164;4.472;2023-03-15T02:13:58;5.39;75.54
66670;DHT22;53568;52.164;4.472;2023-03-15T02:16:28;5.39;75.54
66670;DHT22;53568;52.164;4.472;2023-03-15T02:18:54;5.49;75.23
66670;DHT22;53568;52.164;4.472;2023-03-15T02:21:35;5.56;75.21
66670;DHT22;53568;52.164;4.472;2023-03-15T02:24:09;5.44;74.90
66670;DHT22;53568;52.164;4.472;2023-03-15T02:26:52;5.52;74.83
66670;DHT22;53568;52.164;4.472;2023-03-15T02:29:39;5.47;74.80
66670;DHT22;53568;52.164;4.472;2023-03-15T02:32:06;5.39;74.75
66670;DHT22;53568;52.164;4.472;2023-03-15T02:34:32;5.56;74.43
66670;DHT22;53568;52.164;4.472;2023-03-15T02:36:57;5.62;74.24
66670;DHT22;53568;52.164;4.472;2023-03-15T02:39:23;5.69;73.66
66670;DHT22;53568;52.164;4.472;2023-03-15T02:41:56;5.80;73.26
66670;DHT22;53568;52.164;4.472;2023-03-15T02:44:32;5.70;73.46
66670;DHT22;53568;52.164;4.472;2023-03-15T02:47:18;5.78;73.16
66670;DHT22;53568;52.164;4.472;2023-03-15T02:49:49;5.86;73.00
66670;DHT22;53568;52.164;4.472;2023-03-15T02:52:15;5.97;72.68
66670;DHT22;53568;52.164;4.472;2023-03-15T02:54:41;5.97;72.38
66670;DHT22;53568;52.164;4.472;2023-03-15T02:57:14;6.10;72.17
66670;DHT22;53568;52.164;4.472;2023-03-15T02:59:40;6.13;71.76
66670;DHT22;53568;52.164;4.472;2023-03-15T03:02:10;6.18;71.63
66670;DHT22;53568;52.164;4.472;2023-03-15T03:04:37;6.22;71.12
66670;DHT22;53568;52.164;4.472;2023-03-15T03:07:02;6.28;70.57
66670;DHT22;53568;52.164;4.472;2023-03-15T03:09:28;6.28;70.34
66670;DHT22;53568;52.164;4.472;2023-03-15T03:11:54;6.24;70.13
66670;DHT22;53568;52.164;4.472;2023-03-15T03:14:19;6.16;68.56
66670;DHT22;53568;52.164;4.472;2023-03-15T03:16:48;6.03;68.03
66670;DHT22;53568;52.164;4.472;2023-03-15T03:19:14;6.06;68.50
66670;DHT22;53568;52.164;4.472;2023-03-15T03:21:40;5.97;67.93
66670;DHT22;53568;52.164;4.472;2023-03-15T03:24:09;5.90;67.90
66670;DHT22;53568;52.164;4.472;2023-03-15T03:26:35;5.66;68.51
66670;DHT22;53568;52.164;4.472;2023-03-15T03:29:03;5.77;68.35
66670;DHT22;53568;52.164;4.472;2023-03-15T03:31:30;5.76;68.56
66670;DHT22;53568;52.164;4.472;2023-03-15T03:33:58;5.77;68.78
66670;DHT22;53568;52.164;4.472;2023-03-15T03:36:24;5.77;68.61
66670;DHT22;53568;52.164;4.472;2023-03-15T03:38:50;5.76;68.79
66670;DHT22;53568;52.164;4.472;2023-03-15T03:41:16;5.76;68.85
66670;DHT22;53568;52.164;4.472;2023-03-15T03:43:42;5.84;68.75
66670;DHT22;53568;52.164;4.472;2023-03-15T03:46:07;5.86;68.72
66670;DHT22;53568;52.164;4.472;2023-03-15T03:48:33;5.73;68.89
66670;DHT22;53568;52.164;4.472;2023-03-15T03:50:59;5.83;68.89
66670;DHT22;53568;52.164;4.472;2023-03-15T03:53:24;5.80;69.04
66670;DHT22;53568;52.164;4.472;2023-03-15T03:55:50;5.87;68.84
66670;DHT22;53568;52.164;4.472;2023-03-15T03:58:16;5.87;69.07
66670;DHT22;53568;52.164;4.472;2023-03-15T04:00:41;5.90;69.02
66670;DHT22;53568;52.164;4.472;2023-03-15T04:03:07;5.89;68.71
66670;DHT22;53568;52.164;4.472;2023-03-15T04:05:34;5.98;68.36
66670;DHT22;53568;52.164;4.472;2023-03-15T04:08:00;5.98;68.43
66670;DHT22;53568;52.164;4.472;2023-03-15T04:10:26;5.94;68.74
66670;DHT22;53568;52.164;4.472;2023-03-15T04:12:56;6.00;68.61
66670;DHT22;53568;52.164;4.472;2023-03-15T04:15:23;5.96;68.72
66670;DHT22;53568;52.164;4.472;2023-03-15T04:17:49;6.00;68.76
66670;DHT22;53568;52.164;4.472;2023-03-15T04:20:29;6.00;68.89
66670;DHT22;53568;52.164;4.472;2023-03-15T04:22:59;5.97;69.05
66670;DHT22;53568;52.164;4.472;2023-03-15T04:25:25;5.89;68.19
66670;DHT22;53568;52.164;4.472;2023-03-15T04:27:52;5.90;67.85
66670;DHT22;53568;52.164;4.472;2023-03-15T04:30:28;5.81;68.05
66670;DHT22;53568;52.164;4.472;2023-03-15T04:32:57;5.78;67.59
66670;DHT22;53568;52.164;4.472;2023-03-15T04:35:32;5.67;68.29
66670;DHT22;53568;52.164;4.472;2023-03-15T04:37:58;5.59;67.93
66670;DHT22;53568;52.164;4.472;2023-03-15T04:40:24;5.63;67.62
66670;DHT22;53568;52.164;4.472;2023-03-15T04:42:51;5.62;67.80
66670;DHT22;53568;52.164;4.472;2023-03-15T04:45:20;5.53;67.98
66670;DHT22;53568;52.164;4.472;2023-03-15T04:47:46;5.56;67.70
66670;DHT22;53568;52.164;4.472;2023-03-15T04:50:13;5.49;68.00
66670;DHT22;53568;52.164;4.472;2023-03-15T04:52:38;5.46;68.29
66670;DHT22;53568;52.164;4.472;2023-03-15T04:55:04;5.50;68.32
66670;DHT22;53568;52.164;4.472;2023-03-15T04:57:30;5.62;67.69
66670;DHT22;53568;52.164;4.472;2023-03-15T04:59:55;5.56;67.46
66670;DHT22;53568;52.164;4.472;2023-03-15T05:02:21;5.62;67.53
66670;DHT22;53568;52.164;4.472;2023-03-15T05:04:47;5.66;67.55
66670;DHT22;53568;52.164;4.472;2023-03-15T05:07:13;5.64;67.76
66670;DHT22;53568;52.164;4.472;2023-03-15T05:09:39;5.70;67.23
66670;DHT22;53568;52.164;4.472;2023-03-15T05:12:04;5.54;67.75
66670;DHT22;53568;52.164;4.472;2023-03-15T05:14:31;5.64;68.08
66670;DHT22;53568;52.164;4.472;2023-03-15T05:16:56;5.44;69.12
66670;DHT22;53568;52.164;4.472;2023-03-15T05:19:24;5.36;69.54
66670;DHT22;53568;52.164;4.472;2023-03-15T05:21:50;5.38;69.81
66670;DHT22;53568;52.164;4.472;2023-03-15T05:24:16;5.15;70.63
66670;DHT22;53568;52.164;4.472;2023-03-15T05:26:41;5.33;70.50
66670;DHT22;53568;52.164;4.472;2023-03-15T05:29:13;5.22;71.06
66670;DHT22;53568;52.164;4.472;2023-03-15T05:31:39;5.20;71.39
66670;DHT22;53568;52.164;4.472;2023-03-15T05:34:05;4.93;73.35
66670;DHT22;53568;52.164;4.472;2023-03-15T05:36:33;4.65;75.41
66670;DHT22;53568;52.164;4.472;2023-03-15T05:38:59;4.40;76.60
66670;DHT22;53568;52.164;4.472;2023-03-15T05:41:27;4.33;76.91
66670;DHT22;53568;52.164;4.472;2023-03-15T05:43:53;4.36;77.16
66670;DHT22;53568;52.164;4.472;2023-03-15T05:46:18;4.47;76.75
66670;DHT22;53568;52.164;4.472;2023-03-15T05:48:44;4.57;76.50
66670;DHT22;53568;52.164;4.472;2023-03-15T05:51:10;4.60;75.25
66670;DHT22;53568;52.164;4.472;2023-03-15T05:53:35;4.48;75.38
66670;DHT22;53568;52.164;4.472;2023-03-15T05:56:01;4.57;75.23
66670;DHT22;53568;52.164;4.472;2023-03-15T05:58:26;4.65;74.51
66670;DHT22;53568;52.164;4.472;2023-03-15T06:00:52;4.75;74.30
66670;DHT22;53568;52.164;4.472;2023-03-15T06:03:18;4.81;73.87
66670;DHT22;53568;52.164;4.472;2023-03-15T06:05:43;4.86;73.18
66670;DHT22;53568;52.164;4.472;2023-03-15T06:08:09;4.92;73.28
66670;DHT22;53568;52.164;4.472;2023-03-15T06:10:34;5.00;72.82
66670;DHT22;53568;52.164;4.472;2023-03-15T06:13:00;5.05;72.70
66670;DHT22;53568;52.164;4.472;2023-03-15T06:15:26;5.16;72.41
66670;DHT22;53568;52.164;4.472;2023-03-15T06:17:51;5.25;71.71
66670;DHT22;53568;52.164;4.472;2023-03-15T06:20:18;5.32;71.47
66670;DHT22;53568;52.164;4.472;2023-03-15T06:22:43;5.39;71.33
66670;DHT22;53568;52.164;4.472;2023-03-15T06:25:09;5.47;71.21
66670;DHT22;53568;52.164;4.472;2023-03-15T06:27:36;5.52;71.07
66670;DHT22;53568;52.164;4.472;2023-03-15T06:30:02;5.56;70.35
66670;DHT22;53568;52.164;4.472;2023-03-15T06:32:28;5.54;70.46
66670;DHT22;53568;52.164;4.472;2023-03-15T06:34:53;5.49;70.66
66670;DHT22;53568;52.164;4.472;2023-03-15T06:37:19;5.57;70.34
66670;DHT22;53568;52.164;4.472;2023-03-15T06:39:46;5.63;69.18
66670;DHT22;53568;52.164;4.472;2023-03-15T06:42:12;5.60;69.51
66670;DHT22;53568;52.164;4.472;2023-03-15T06:44:39;5.67;69.58
66670;DHT22;53568;52.164;4.472;2023-03-15T06:47:05;5.67;69.67
66670;DHT22;53568;52.164;4.472;2023-03-15T06:49:30;5.71;69.78
66670;DHT22;53568;52.164;4.472;2023-03-15T06:51:56;5.80;69.74
66670;DHT22;53568;52.164;4.472;2023-03-15T06:54:22;5.87;69.69
66670;DHT22;53568;52.164;4.472;2023-03-15T06:56:48;6.00;69.43
66670;DHT22;53568;52.164;4.472;2023-03-15T06:59:14;6.01;69.57
66670;DHT22;53568;52.164;4.472;2023-03-15T07:01:39;6.00;70.02
66670;DHT22;53568;52.164;4.472;2023-03-15T07:04:05;6.04;70.13
66670;DHT22;53568;52.164;4.472;2023-03-15T07:06:30;6.16;69.99
66670;DHT22;53568;52.164;4.472;2023-03-15T07:08:56;6.22;69.92
66670;DHT22;53568;52.164;4.472;2023-03-15T07:11:21;6.21;69.86
66670;DHT22;53568;52.164;4.472;2023-03-15T07:13:47;6.28;69.94
66670;DHT22;53568;52.164;4.472;2023-03-15T07:16:12;6.28;70.06
66670;DHT22;53568;52.164;4.472;2023-03-15T07:18:38;6.25;70.33
66670;DHT22;53568;52.164;4.472;2023-03-15T07:21:04;6.34;70.17
66670;DHT22;53568;52.164;4.472;2023-03-15T07:23:32;6.35;70.16
66670;DHT22;53568;52.164;4.472;2023-03-15T07:25:58;6.40;70.02
66670;DHT22;53568;52.164;4.472;2023-03-15T07:28:25;6.41;69.95
66670;DHT22;53568;52.164;4.472;2023-03-15T07:30:59;6.45;69.79
66670;DHT22;53568;52.164;4.472;2023-03-15T07:33:28;6.54;69.57
66670;DHT22;53568;52.164;4.472;2023-03-15T07:35:54;6.46;69.48
66670;DHT22;53568;52.164;4.472;2023-03-15T07:38:22;6.51;69.42
66670;DHT22;53568;52.164;4.472;2023-03-15T07:40:48;6.51;69.50
66670;DHT22;53568;52.164;4.472;2023-03-15T07:43:14;6.51;69.54
66670;DHT22;53568;52.164;4.472;2023-03-15T07:45:40;6.58;69.26
66670;DHT22;53568;52.164;4.472;2023-03-15T07:48:06;6.59;68.66
66670;DHT22;53568;52.164;4.472;2023-03-15T07:50:31;6.65;68.34
66670;DHT22;53568;52.164;4.472;2023-03-15T07:52:57;6.71;68.09
66670;DHT22;53568;52.164;4.472;2023-03-15T07:55:23;6.68;68.09
66670;DHT22;53568;52.164;4.472;2023-03-15T07:57:49;6.68;68.13
66670;DHT22;53568;52.164;4.472;2023-03-15T08:00:15;6.74;68.27
66670;DHT22;53568;52.164;4.472;2023-03-15T08:02:41;6.82;67.53
66670;DHT22;53568;52.164;4.472;2023-03-15T08:05:07;6.88;67.66
66670;DHT22;53568;52.164;4.472;2023-03-15T08:07:32;6.93;67.63
66670;DHT22;53568;52.164;4.472;2023-03-15T08:09:58;7.00;67.43
66670;DHT22;53568;52.164;4.472;2023-03-15T08:12:24;7.07;67.29
66670;DHT22;53568;52.164;4.472;2023-03-15T08:14:49;7.13;66.91
66670;DHT22;53568;52.164;4.472;2023-03-15T08:17:16;7.15;66.52
66670;DHT22;53568;52.164;4.472;2023-03-15T08:19:42;7.12;66.35
66670;DHT22;53568;52.164;4.472;2023-03-15T08:22:08;7.16;66.25
66670;DHT22;53568;52.164;4.472;2023-03-15T08:24:34;7.15;66.86
66670;DHT22;53568;52.164;4.472;2023-03-15T08:27:00;7.22;66.99
66670;DHT22;53568;52.164;4.472;2023-03-15T08:29:26;7.29;67.09
66670;DHT22;53568;52.164;4.472;2023-03-15T08:31:52;7.20;67.44
66670;DHT22;53568;52.164;4.472;2023-03-15T08:34:17;7.24;67.65
66670;DHT22;53568;52.164;4.472;2023-03-15T08:36:45;7.31;67.57
66670;DHT22;53568;52.164;4.472;2023-03-15T08:39:11;7.44;67.53
66670;DHT22;53568;52.164;4.472;2023-03-15T08:41:37;7.54;66.78
66670;DHT22;53568;52.164;4.472;2023-03-15T08:44:02;7.57;66.51
66670;DHT22;53568;52.164;4.472;2023-03-15T08:46:28;7.71;66.41
66670;DHT22;53568;52.164;4.472;2023-03-15T08:48:54;7.78;66.18
66670;DHT22;53568;52.164;4.472;2023-03-15T08:51:19;7.69;65.86
66670;DHT22;53568;52.164;4.472;2023-03-15T08:53:46;7.78;65.76
66670;DHT22;53568;52.164;4.472;2023-03-15T08:56:12;7.93;65.25
66670;DHT22;53568;52.164;4.472;2023-03-15T08:58:37;7.99;64.87
66670;DHT22;53568;52.164;4.472;2023-03-15T09:01:03;8.04;64.69
66670;DHT22;53568;52.164;4.472;2023-03-15T09:03:31;8.12;64.34
66670;DHT22;53568;52.164;4.472;2023-03-15T09:05:58;8.01;63.82
66670;DHT22;53568;52.164;4.472;2023-03-15T09:08:25;8.17;63.67
66670;DHT22;53568;52.164;4.472;2023-03-15T09:10:55;8.17;62.73
66670;DHT22;53568;52.164;4.472;2023-03-15T09:13:21;8.22;61.97
66670;DHT22;53568;52.164;4.472;2023-03-15T09:15:55;8.24;61.47
66670;DHT22;53568;52.164;4.472;2023-03-15T09:18:21;8.24;60.35
66670;DHT22;53568;52.164;4.472;2023-03-15T09:20:47;8.17;60.41
66670;DHT22;53568;52.164;4.472;2023-03-15T09:23:13;8.25;59.02
66670;DHT22;53568;52.164;4.472;2023-03-15T09:25:39;8.24;58.62
66670;DHT22;53568;52.164;4.472;2023-03-15T09:28:08;8.28;56.94
66670;DHT22;53568;52.164;4.472;2023-03-15T09:30:36;8.22;56.29
66670;DHT22;53568;52.164;4.472;2023-03-15T09:33:03;8.31;56.63
66670;DHT22;53568;52.164;4.472;2023-03-15T09:35:28;8.42;56.78
66670;DHT22;53568;52.164;4.472;2023-03-15T09:37:54;8.56;56.59
66670;DHT22;53568;52.164;4.472;2023-03-15T09:40:29;8.52;56.25
66670;DHT22;53568;52.164;4.472;2023-03-15T09:43:03;8.49;57.55
66670;DHT22;53568;52.164;4.472;2023-03-15T09:48:26;8.73;58.38
66670;DHT22;53568;52.164;4.472;2023-03-15T09:53:34;8.72;59.31
66670;DHT22;53568;52.164;4.472;2023-03-15T09:56:01;8.68;59.34
66670;DHT22;53568;52.164;4.472;2023-03-15T09:58:31;8.79;58.50
66670;DHT22;53568;52.164;4.472;2023-03-15T10:01:02;8.95;56.93
66670;DHT22;53568;52.164;4.472;2023-03-15T10:03:46;8.89;55.19
66670;DHT22;53568;52.164;4.472;2023-03-15T10:06:17;8.86;54.88
66670;DHT22;53568;52.164;4.472;2023-03-15T10:08:45;8.89;53.19
66670;DHT22;53568;52.164;4.472;2023-03-15T10:11:33;8.96;53.19
66670;DHT22;53568;52.164;4.472;2023-03-15T10:16:53;9.13;52.23
66670;DHT22;53568;52.164;4.472;2023-03-15T10:24:33;9.33;45.38
66670;DHT22;53568;52.164;4.472;2023-03-15T10:27:14;9.33;46.40
66670;DHT22;53568;52.164;4.472;2023-03-15T10:29:43;9.31;47.09
66670;DHT22;53568;52.164;4.472;2023-03-15T10:32:17;9.07;47.89
66670;DHT22;53568;52.164;4.472;2023-03-15T10:34:48;8.99;48.99
66670;DHT22;53568;52.164;4.472;2023-03-15T10:37:14;9.02;49.18
66670;DHT22;53568;52.164;4.472;2023-03-15T10:39:40;9.15;47.85
66670;DHT22;53568;52.164;4.472;2023-03-15T10:42:31;9.17;46.29
66670;DHT22;53568;52.164;4.472;2023-03-15T10:45:11;9.26;46.12
66670;DHT22;53568;52.164;4.472;2023-03-15T10:47:42;9.40;46.55
66670;DHT22;53568;52.164;4.472;2023-03-15T10:50:09;9.34;45.33
66670;DHT22;53568;52.164;4.472;2023-03-15T10:52:44;9.41;44.09
66670;DHT22;53568;52.164;4.472;2023-03-15T10:55:16;9.44;43.66
66670;DHT22;53568;52.164;4.472;2023-03-15T10:57:55;9.44;44.51
66670;DHT22;53568;52.164;4.472;2023-03-15T11:00:36;9.65;44.81
66670;DHT22;53568;52.164;4.472;2023-03-15T11:05:37;9.65;46.98
66670;DHT22;53568;52.164;4.472;2023-03-15T11:08:11;9.61;47.21
66670;DHT22;53568;52.164;4.472;2023-03-15T11:10:36;9.74;47.71
66670;DHT22;53568;52.164;4.472;2023-03-15T11:13:19;9.69;46.73
66670;DHT22;53568;52.164;4.472;2023-03-15T11:15:52;9.70;45.76
66670;DHT22;53568;52.164;4.472;2023-03-15T11:18:26;9.67;44.51
66670;DHT22;53568;52.164;4.472;2023-03-15T11:20:55;9.73;45.89
66670;DHT22;53568;52.164;4.472;2023-03-15T11:23:26;9.71;46.43
66670;DHT22;53568;52.164;4.472;2023-03-15T11:25:53;9.78;46.10
66670;DHT22;53568;52.164;4.472;2023-03-15T11:28:23;9.84;42.64
66670;DHT22;53568;52.164;4.472;2023-03-15T11:30:50;9.94;42.69
66670;DHT22;53568;52.164;4.472;2023-03-15T11:33:44;9.99;42.02
66670;DHT22;53568;52.164;4.472;2023-03-15T11:36:18;10.05;41.17
66670;DHT22;53568;52.164;4.472;2023-03-15T11:38:45;10.05;41.41
66670;DHT22;53568;52.164;4.472;2023-03-15T11:41:35;10.15;41.83
66670;DHT22;53568;52.164;4.472;2023-03-15T11:44:29;10.11;43.71
66670;DHT22;53568;52.164;4.472;2023-03-15T11:47:09;10.05;44.19
66670;DHT22;53568;52.164;4.472;2023-03-15T11:52:14;10.31;43.24
66670;DHT22;53568;52.164;4.472;2023-03-15T11:54:40;10.28;42.54
66670;DHT22;53568;52.164;4.472;2023-03-15T11:59:56;10.32;43.45
66670;DHT22;53568;52.164;4.472;2023-03-15T12:04:49;10.42;43.68
66670;DHT22;53568;52.164;4.472;2023-03-15T12:17:45;10.26;45.40
66670;DHT22;53568;52.164;4.472;2023-03-15T12:20:33;10.36;45.77
66670;DHT22;53568;52.164;4.472;2023-03-15T12:25:56;10.28;44.71
66670;DHT22;53568;52.164;4.472;2023-03-15T12:31:02;10.38;44.79
66670;DHT22;53568;52.164;4.472;2023-03-15T12:33:30;10.36;44.01
66670;DHT22;53568;52.164;4.472;2023-03-15T12:36:07;10.39;42.89
66670;DHT22;53568;52.164;4.472;2023-03-15T12:38:38;10.55;43.39
66670;DHT22;53568;52.164;4.472;2023-03-15T12:41:33;10.65;44.15
66670;DHT22;53568;52.164;4.472;2023-03-15T12:44:18;10.72;43.82
66670;DHT22;53568;52.164;4.472;2023-03-15T12:52:08;11.10;44.81
66670;DHT22;53568;52.164;4.472;2023-03-15T12:54:49;11.02;44.89
66670;DHT22;53568;52.164;4.472;2023-03-15T12:57:26;11.00;43.03
66670;DHT22;53568;52.164;4.472;2023-03-15T13:08:21;10.68;45.97
66670;DHT22;53568;52.164;4.472;2023-03-15T13:11:11;10.75;46.28
66670;DHT22;53568;52.164;4.472;2023-03-15T13:13:49;10.53;47.92
66670;DHT22;53568;52.164;4.472;2023-03-15T13:16:41;10.72;47.21
66670;DHT22;53568;52.164;4.472;2023-03-15T13:19:25;10.83;46.22
66670;DHT22;53568;52.164;4.472;2023-03-15T13:27:57;11.13;46.06
66670;DHT22;53568;52.164;4.472;2023-03-15T13:30:41;10.84;45.44
66670;DHT22;53568;52.164;4.472;2023-03-15T13:33:20;10.72;45.74
66670;DHT22;53568;52.164;4.472;2023-03-15T13:36:00;10.88;46.13
66670;DHT22;53568;52.164;4.472;2023-03-15T13:38:32;11.02;44.16
66670;DHT22;53568;52.164;4.472;2023-03-15T13:41:01;10.96;43.99
66670;DHT22;53568;52.164;4.472;2023-03-15T13:43:37;11.07;44.46
66670;DHT22;53568;52.164;4.472;2023-03-15T13:46:04;11.13;42.90
66670;DHT22;53568;52.164;4.472;2023-03-15T13:48:32;11.17;43.75
66670;DHT22;53568;52.164;4.472;2023-03-15T13:54:05;11.40;44.50
66670;DHT22;53568;52.164;4.472;2023-03-15T13:56:34;11.24;43.40
66670;DHT22;53568;52.164;4.472;2023-03-15T13:59:02;11.44;43.37
66670;DHT22;53568;52.164;4.472;2023-03-15T14:01:31;11.41;43.61
66670;DHT22;53568;52.164;4.472;2023-03-15T14:04:12;11.43;42.28
66670;DHT22;53568;52.164;4.472;2023-03-15T14:06:38;11.20;42.92
66670;DHT22;53568;52.164;4.472;2023-03-15T14:09:16;11.14;43.78
66670;DHT22;53568;52.164;4.472;2023-03-15T14:11:42;11.12;42.58
66670;DHT22;53568;52.164;4.472;2023-03-15T14:14:26;11.31;42.16
66670;DHT22;53568;52.164;4.472;2023-03-15T14:16:53;11.34;41.71
66670;DHT22;53568;52.164;4.472;2023-03-15T14:19:29;11.48;41.07
66670;DHT22;53568;52.164;4.472;2023-03-15T14:21:59;11.06;42.34
66670;DHT22;53568;52.164;4.472;2023-03-15T14:24:34;10.97;42.98
66670;DHT22;53568;52.164;4.472;2023-03-15T14:27:06;10.80;43.49
66670;DHT22;53568;52.164;4.472;2023-03-15T14:29:35;11.07;43.55
66670;DHT22;53568;52.164;4.472;2023-03-15T14:32:05;11.22;43.57
66670;DHT22;53568;52.164;4.472;2023-03-15T14:34:35;11.37;42.99
66670;DHT22;53568;52.164;4.472;2023-03-15T14:37:06;11.19;43.77
66670;DHT22;53568;52.164;4.472;2023-03-15T14:39:39;11.27;44.03
66670;DHT22;53568;52.164;4.472;2023-03-15T14:42:05;11.23;44.34
66670;DHT22;53568;52.164;4.472;2023-03-15T14:44:31;11.12;44.64
66670;DHT22;53568;52.164;4.472;2023-03-15T14:46:57;11.06;44.49
66670;DHT22;53568;52.164;4.472;2023-03-15T14:49:25;11.20;44.80
66670;DHT22;53568;52.164;4.472;2023-03-15T14:52:02;11.20;44.35
66670;DHT22;53568;52.164;4.472;2023-03-15T14:54:30;11.30;44.52
66670;DHT22;53568;52.164;4.472;2023-03-15T14:56:56;11.36;44.62
66670;DHT22;53568;52.164;4.472;2023-03-15T14:59:22;11.27;44.99
66670;DHT22;53568;52.164;4.472;2023-03-15T15:01:57;11.12;45.33
66670;DHT22;53568;52.164;4.472;2023-03-15T15:04:31;10.97;45.61
66670;DHT22;53568;52.164;4.472;2023-03-15T15:06:57;11.02;46.03
66670;DHT22;53568;52.164;4.472;2023-03-15T15:09:25;10.93;46.29
66670;DHT22;53568;52.164;4.472;2023-03-15T15:11:53;10.89;45.91
66670;DHT22;53568;52.164;4.472;2023-03-15T15:14:19;10.89;46.43
66670;DHT22;53568;52.164;4.472;2023-03-15T15:16:46;10.99;46.21
66670;DHT22;53568;52.164;4.472;2023-03-15T15:19:12;10.90;46.15
66670;DHT22;53568;52.164;4.472;2023-03-15T15:21:39;10.86;46.46
66670;DHT22;53568;52.164;4.472;2023-03-15T15:24:15;10.86;46.39
66670;DHT22;53568;52.164;4.472;2023-03-15T15:26:41;10.89;47.32
66670;DHT22;53568;52.164;4.472;2023-03-15T15:29:12;10.90;46.04
66670;DHT22;53568;52.164;4.472;2023-03-15T15:31:38;10.92;46.00
66670;DHT22;53568;52.164;4.472;2023-03-15T15:34:04;10.89;46.07
66670;DHT22;53568;52.164;4.472;2023-03-15T15:36:33;10.80;45.71
66670;DHT22;53568;52.164;4.472;2023-03-15T15:38:59;10.77;44.81
66670;DHT22;53568;52.164;4.472;2023-03-15T15:41:30;10.70;44.26
66670;DHT22;53568;52.164;4.472;2023-03-15T15:43:59;10.76;44.12
66670;DHT22;53568;52.164;4.472;2023-03-15T15:46:26;10.79;43.48
66670;DHT22;53568;52.164;4.472;2023-03-15T15:48:51;10.75;43.44
66670;DHT22;53568;52.164;4.472;2023-03-15T15:53:50;10.62;43.48
66670;DHT22;53568;52.164;4.472;2023-03-15T15:56:18;10.58;43.16
66670;DHT22;53568;52.164;4.472;2023-03-15T15:58:45;10.58;43.10
66670;DHT22;53568;52.164;4.472;2023-03-15T16:01:13;10.58;43.89
66670;DHT22;53568;52.164;4.472;2023-03-15T16:03:39;10.55;44.19
66670;DHT22;53568;52.164;4.472;2023-03-15T16:06:15;10.60;44.48
66670;DHT22;53568;52.164;4.472;2023-03-15T16:08:42;10.55;43.88
66670;DHT22;53568;52.164;4.472;2023-03-15T16:11:10;10.55;43.86
66670;DHT22;53568;52.164;4.472;2023-03-15T16:13:37;10.55;43.79
66670;DHT22;53568;52.164;4.472;2023-03-15T16:16:03;10.50;43.73
66670;DHT22;53568;52.164;4.472;2023-03-15T16:18:28;10.45;43.18
66670;DHT22;53568;52.164;4.472;2023-03-15T16:20:54;10.36;43.15
66670;DHT22;53568;52.164;4.472;2023-03-15T16:23:23;10.32;43.43
66670;DHT22;53568;52.164;4.472;2023-03-15T16:25:53;10.36;43.59
66670;DHT22;53568;52.164;4.472;2023-03-15T16:28:21;10.39;43.84
66670;DHT22;53568;52.164;4.472;2023-03-15T16:30:47;10.25;44.52
66670;DHT22;53568;52.164;4.472;2023-03-15T16:33:18;10.32;44.48
66670;DHT22;53568;52.164;4.472;2023-03-15T16:35:44;10.31;44.38
66670;DHT22;53568;52.164;4.472;2023-03-15T16:38:20;10.35;43.78
66670;DHT22;53568;52.164;4.472;2023-03-15T16:40:50;10.11;43.95
66670;DHT22;53568;52.164;4.472;2023-03-15T16:43:17;10.14;43.82
66670;DHT22;53568;52.164;4.472;2023-03-15T16:45:43;10.12;43.93
66670;DHT22;53568;52.164;4.472;2023-03-15T16:48:09;9.88;44.00
66670;DHT22;53568;52.164;4.472;2023-03-15T16:50:36;10.04;44.34
66670;DHT22;53568;52.164;4.472;2023-03-15T16:53:05;9.95;44.26
66670;DHT22;53568;52.164;4.472;2023-03-15T16:55:32;10.04;43.82
66670;DHT22;53568;52.164;4.472;2023-03-15T16:58:03;10.14;43.37
66670;DHT22;53568;52.164;4.472;2023-03-15T17:00:35;10.15;43.46